Nonstind — LK7508 — position and weather

sailwx.info

Track history (hours):
 
Tides and Currents Weather Stations Pressure Air Temp Water Temp Dewpoint Dewpoint Depression Visibility Wind Speed Wind Dir Waves Ship Positions

Nonstind

Last reported at 2017-Sep-21 21:01 UTC. Time now 2017-Sep-21 21:05 UTC.
Position N 68°01' E 013°41'.

Length 12 m.

Type: Fishing. MMSI: 257150140.

Date/timePositionNaut miles runAvg speedWind from/ knotsBaromVisibWave heightAir tempDewpointWater temp
2017-Sep-21 21:01N 68°01' E 013°41'4 7.6
2017-Sep-21 20:30N 67°58' E 013°48'4 7.7
2017-Sep-21 19:58N 67°55' E 013°55'4 7.8
2017-Sep-21 19:29N 67°52' E 014°02'4 7.7
2017-Sep-21 19:00N 67°50' E 014°09'4 7.4
2017-Sep-21 18:29N 67°47' E 014°16'4 7.6
2017-Sep-21 18:00N 67°44' E 014°23'4 7.8
2017-Sep-21 17:30N 67°42' E 014°31'4 7.5
2017-Sep-21 16:59N 67°39' E 014°39'4 7.7
2017-Sep-21 16:30N 67°39' E 014°48'4 7.3
2017-Sep-21 15:59N 67°40' E 014°58'14 2.4
2017-Sep-21 10:00N 67°47' E 015°31'4 1.2
2017-Sep-21 07:00N 67°45' E 015°39'1 1.1
2017-Sep-21 05:51N 67°45' E 015°42'5 0.6
2017-Sep-20 21:20N 67°47' E 015°30'8 5.5
2017-Sep-20 19:50N 67°43' E 015°12'3 7.6
2017-Sep-20 19:27N 67°41' E 015°05'4 7.7
2017-Sep-20 18:58N 67°39' E 014°57'3 7.0
2017-Sep-20 18:29N 67°39' E 014°48'3 6.9
2017-Sep-20 18:00N 67°39' E 014°39'3 6.8
2017-Sep-20 17:30N 67°41' E 014°32'3 6.9
2017-Sep-20 17:00N 67°43' E 014°25'3 7.0
2017-Sep-20 16:30N 67°46' E 014°19'4 7.2
2017-Sep-20 16:00N 67°49' E 014°12'4 7.2
2017-Sep-20 15:30N 67°51' E 014°06'4 7.0
2017-Sep-20 14:59N 67°54' E 013°59'7 6.9
2017-Sep-20 14:00N 67°59' E 013°47'3 6.8
2017-Sep-20 13:30N 68°01' E 013°41'3 7.1
2017-Sep-20 13:01N 68°04' E 013°34'1 1.6
2017-Sep-20 12:30N 68°04' E 013°32'0 0.7
2017-Sep-20 11:59N 68°04' E 013°32'0 0.0
2017-Sep-20 11:29N 68°04' E 013°32'0 0.0
2017-Sep-20 10:59N 68°04' E 013°32'0 0.0
2017-Sep-20 10:29N 68°04' E 013°32'0 0.0
2017-Sep-20 09:59N 68°04' E 013°32'0 0.0
2017-Sep-20 09:29N 68°04' E 013°32'0 0.0
2017-Sep-20 08:59N 68°04' E 013°32'0 0.0
2017-Sep-20 08:29N 68°04' E 013°32'0 0.0
2017-Sep-20 07:59N 68°04' E 013°32'0 0.0
2017-Sep-20 07:29N 68°04' E 013°32'0 0.0
2017-Sep-20 06:59N 68°04' E 013°32'0 0.0
2017-Sep-20 06:29N 68°04' E 013°32'0 0.0
2017-Sep-20 05:59N 68°04' E 013°32'0 0.0
2017-Sep-20 05:29N 68°04' E 013°32'0 0.0
2017-Sep-20 04:59N 68°04' E 013°32'0 0.0
2017-Sep-20 04:29N 68°04' E 013°32'0 0.0
2017-Sep-20 03:59N 68°04' E 013°32'0 0.0
2017-Sep-20 03:29N 68°04' E 013°32'0 0.0
2017-Sep-20 02:59N 68°04' E 013°32'0 0.0
2017-Sep-20 02:29N 68°04' E 013°32'0 0.0
2017-Sep-20 01:59N 68°04' E 013°32'0 0.0
2017-Sep-20 01:29N 68°04' E 013°32'0 0.0
2017-Sep-20 00:59N 68°04' E 013°32'0 0.0
2017-Sep-20 00:29N 68°04' E 013°32'0 0.0
2017-Sep-19 23:59N 68°04' E 013°32'0 0.0
2017-Sep-19 23:29N 68°04' E 013°32'0 0.0
2017-Sep-19 22:59N 68°04' E 013°32'0 0.3
2017-Sep-19 22:30N 68°05' E 013°32'0 0.0
2017-Sep-19 22:00N 68°05' E 013°32'0 0.0
2017-Sep-19 21:30N 68°05' E 013°32'1 1.2
2017-Sep-19 21:00N 68°04' E 013°33'4 7.7
2017-Sep-19 20:30N 68°01' E 013°40'4 7.7
2017-Sep-19 20:00N 67°59' E 013°47'4 7.9
2017-Sep-19 19:30N 67°56' E 013°54'4 7.8
2017-Sep-19 19:00N 67°53' E 014°02'4 7.8
2017-Sep-19 18:30N 67°50' E 014°09'4 7.8
2017-Sep-19 18:00N 67°47' E 014°16'4 7.8
2017-Sep-19 17:29N 67°44' E 014°23'4 7.8
2017-Sep-19 17:00N 67°42' E 014°31'4 7.6
2017-Sep-19 16:30N 67°39' E 014°38'4 7.7
2017-Sep-19 15:59N 67°39' E 014°49'4 7.4
2017-Sep-19 15:29N 67°40' E 014°58'16 2.4
2017-Sep-19 08:35N 67°46' E 015°39'0 1.0
2017-Sep-19 08:22N 67°45' E 015°39'0 1.0
2017-Sep-19 08:01N 67°45' E 015°40'0 0.9
2017-Sep-19 07:27N 67°45' E 015°41'4 0.4
2017-Sep-18 21:43N 67°47' E 015°32'9 4.8
2017-Sep-18 19:45N 67°42' E 015°10'2 7.5
2017-Sep-18 19:28N 67°41' E 015°06'4 7.7
2017-Sep-18 18:58N 67°39' E 014°56'3 7.5
2017-Sep-18 18:30N 67°39' E 014°47'4 7.6
2017-Sep-18 18:00N 67°39' E 014°38'4 7.4
2017-Sep-18 17:30N 67°42' E 014°30'4 7.3
2017-Sep-18 17:00N 67°44' E 014°23'3 6.9
2017-Sep-18 16:30N 67°47' E 014°17'3 6.8
2017-Sep-18 16:00N 67°49' E 014°11'4 7.1
2017-Sep-18 15:30N 67°52' E 014°04'3 6.9
2017-Sep-18 15:00N 67°54' E 013°58'4 6.8
2017-Sep-18 14:29N 67°57' E 013°51'3 6.8
2017-Sep-18 14:00N 67°59' E 013°45'4 7.3
2017-Sep-18 13:30N 68°02' E 013°39'4 6.8
2017-Sep-18 12:58N 68°04' E 013°32'0 0.0
2017-Sep-18 12:28N 68°04' E 013°32'0 0.0
2017-Sep-18 11:58N 68°04' E 013°32'0 0.0
2017-Sep-18 11:25N 68°04' E 013°32'0 0.0
2017-Sep-18 10:58N 68°04' E 013°32'0 0.0
2017-Sep-18 10:28N 68°04' E 013°32'0 0.0
2017-Sep-18 09:58N 68°04' E 013°32'0 0.0
2017-Sep-18 09:28N 68°04' E 013°32'0 0.0
2017-Sep-18 08:58N 68°04' E 013°32'0 0.0
2017-Sep-18 08:28N 68°04' E 013°32'0 0.0
2017-Sep-18 07:58N 68°04' E 013°32'0 0.0
2017-Sep-18 07:28N 68°04' E 013°32'0 0.0
2017-Sep-18 06:58N 68°04' E 013°32'0 0.0
2017-Sep-18 06:28N 68°04' E 013°32'0 0.3
2017-Sep-18 06:00N 68°05' E 013°32'0 0.0
2017-Sep-18 05:30N 68°05' E 013°32'0 0.0
2017-Sep-18 05:00N 68°05' E 013°32'0 0.3
2017-Sep-18 04:29N 68°04' E 013°32'0 0.0
2017-Sep-18 03:59N 68°04' E 013°32'0 0.0
2017-Sep-18 03:29N 68°04' E 013°32'0 0.0
2017-Sep-18 02:59N 68°04' E 013°32'0 0.0
2017-Sep-18 02:29N 68°04' E 013°32'0 0.0
2017-Sep-18 01:59N 68°04' E 013°32'0 0.0
2017-Sep-18 01:29N 68°04' E 013°32'0 0.0
2017-Sep-18 00:59N 68°04' E 013°32'0 0.0
2017-Sep-18 00:29N 68°04' E 013°32'0 0.0
2017-Sep-17 23:59N 68°04' E 013°32'0 0.0
2017-Sep-17 23:29N 68°04' E 013°32'0 0.0
2017-Sep-17 22:59N 68°04' E 013°32'0 0.0
2017-Sep-17 22:29N 68°04' E 013°32'2 4.7
2017-Sep-17 22:00N 68°03' E 013°37'4 7.2
2017-Sep-17 21:30N 68°00' E 013°43'4 7.3
2017-Sep-17 20:59N 67°58' E 013°49'4 7.5
2017-Sep-17 20:30N 67°55' E 013°56'4 7.6
2017-Sep-17 19:59N 67°52' E 014°04'4 7.6
2017-Sep-17 19:30N 67°50' E 014°11'4 7.4
2017-Sep-17 18:59N 67°47' E 014°18'3 7.1
2017-Sep-17 18:30N 67°44' E 014°24'3 7.0
2017-Sep-17 18:00N 67°42' E 014°30'3 6.8
2017-Sep-17 17:30N 67°39' E 014°37'3 6.6
2017-Sep-17 17:00N 67°39' E 014°45'3 6.1
2017-Sep-17 16:30N 67°39' E 014°53'3 6.0
2017-Sep-17 16:00N 67°40' E 015°01'14 0.7
2017-Sep-16 21:15N 67°47' E 015°32'0 1.0
2017-Sep-16 21:00N 67°47' E 015°32'8 6.4
2017-Sep-16 19:46N 67°43' E 015°13'2 7.8
2017-Sep-16 19:29N 67°42' E 015°08'4 7.6
2017-Sep-16 19:00N 67°40' E 015°00'4 7.5
2017-Sep-16 18:29N 67°39' E 014°50'4 7.6
2017-Sep-16 18:00N 67°39' E 014°41'4 7.4
2017-Sep-16 17:30N 67°41' E 014°32'4 7.8
2017-Sep-16 17:00N 67°44' E 014°25'4 7.7
2017-Sep-16 16:30N 67°47' E 014°18'4 7.5
2017-Sep-16 16:00N 67°49' E 014°11'4 7.3
2017-Sep-16 15:30N 67°52' E 014°04'4 7.2
2017-Sep-16 15:00N 67°54' E 013°58'4 6.9
2017-Sep-16 14:29N 67°57' E 013°51'3 7.3
2017-Sep-16 14:00N 67°60' E 013°45'4 7.5
2017-Sep-16 13:30N 68°02' E 013°38'3 5.9
2017-Sep-16 12:58N 68°04' E 013°32'0 0.0
2017-Sep-16 12:28N 68°04' E 013°32'0 0.0
2017-Sep-16 11:58N 68°04' E 013°32'0 0.0
2017-Sep-16 11:28N 68°04' E 013°32'0 0.0
2017-Sep-16 10:58N 68°04' E 013°32'0 0.0
2017-Sep-16 10:28N 68°04' E 013°32'0 0.0
2017-Sep-16 09:58N 68°04' E 013°32'0 0.0
2017-Sep-16 09:28N 68°04' E 013°32'0 0.0
2017-Sep-16 08:58N 68°04' E 013°32'0 0.0
2017-Sep-16 08:28N 68°04' E 013°32'0 0.0
2017-Sep-16 07:58N 68°04' E 013°32'0 0.0
2017-Sep-16 07:28N 68°04' E 013°32'0 0.0
2017-Sep-16 06:58N 68°04' E 013°32'0 0.0
2017-Sep-16 06:28N 68°04' E 013°32'0 0.0
2017-Sep-16 05:58N 68°04' E 013°32'0 0.0
2017-Sep-16 05:28N 68°04' E 013°32'0 0.0
2017-Sep-16 04:58N 68°04' E 013°32'0 0.0
2017-Sep-16 04:28N 68°04' E 013°32'0 0.0
2017-Sep-16 03:52N 68°04' E 013°32'0 0.0
2017-Sep-16 03:28N 68°04' E 013°32'0 0.0
2017-Sep-16 02:58N 68°04' E 013°32'0 0.0
2017-Sep-16 02:28N 68°04' E 013°32'0 0.0
2017-Sep-16 01:58N 68°04' E 013°32'0 0.0
2017-Sep-16 01:28N 68°04' E 013°32'0 0.0
2017-Sep-16 00:58N 68°04' E 013°32'0 0.0
2017-Sep-16 00:28N 68°04' E 013°32'0 0.0
2017-Sep-15 23:58N 68°04' E 013°32'0 0.0
2017-Sep-15 23:28N 68°04' E 013°32'0 0.0
2017-Sep-15 22:59N 68°04' E 013°32'0 0.0
2017-Sep-15 22:28N 68°04' E 013°32'0 0.0
2017-Sep-15 21:58N 68°04' E 013°32'0 0.0
2017-Sep-15 21:28N 68°04' E 013°32'0 0.0
2017-Sep-15 20:59N 68°04' E 013°32'0 0.0
2017-Sep-15 20:29N 68°04' E 013°32'0 0.0
2017-Sep-15 19:59N 68°04' E 013°32'0 0.0
2017-Sep-15 19:29N 68°04' E 013°32'0 0.0
2017-Sep-15 18:59N 68°04' E 013°32'0 0.0
2017-Sep-15 18:29N 68°04' E 013°32'0 0.0
2017-Sep-15 17:59N 68°04' E 013°32'0 0.0
2017-Sep-15 17:29N 68°04' E 013°32'0 0.0
2017-Sep-15 16:59N 68°04' E 013°32'0 0.0
2017-Sep-15 16:29N 68°04' E 013°32'0 0.0
2017-Sep-15 15:59N 68°04' E 013°32'0 0.0
2017-Sep-15 15:29N 68°04' E 013°32'0 0.0
2017-Sep-15 14:59N 68°04' E 013°32'0 0.0
2017-Sep-15 14:29N 68°04' E 013°32'0 0.0
2017-Sep-15 13:59N 68°04' E 013°32'0 0.0
2017-Sep-15 13:29N 68°04' E 013°32'0 0.0
2017-Sep-15 12:59N 68°04' E 013°32'0 0.0
2017-Sep-15 12:29N 68°04' E 013°32'0 0.0
2017-Sep-15 11:59N 68°04' E 013°32'0 0.0
2017-Sep-15 11:29N 68°04' E 013°32'0 0.0
2017-Sep-15 10:59N 68°04' E 013°32'0 0.0
2017-Sep-15 10:29N 68°04' E 013°32'0 0.0
2017-Sep-15 09:59N 68°04' E 013°32'0 0.0
2017-Sep-15 09:29N 68°04' E 013°32'0 0.0
2017-Sep-15 08:59N 68°04' E 013°32'0 0.0
2017-Sep-15 08:26N 68°04' E 013°32'0 0.0
2017-Sep-15 07:59N 68°04' E 013°32'0 0.0
2017-Sep-15 07:29N 68°04' E 013°32'0 0.3
2017-Sep-15 06:59N 68°05' E 013°32'0 0.0
2017-Sep-15 06:29N 68°05' E 013°32'0 0.0
2017-Sep-15 05:59N 68°05' E 013°32'0 0.0
2017-Sep-15 05:29N 68°05' E 013°32'0 0.0
2017-Sep-15 04:59N 68°05' E 013°32'0 0.3
2017-Sep-15 04:30N 68°04' E 013°32'0 0.0
2017-Sep-15 04:00N 68°04' E 013°32'0 0.0
2017-Sep-15 03:30N 68°04' E 013°32'0 0.0
2017-Sep-15 03:00N 68°04' E 013°32'0 0.0
2017-Sep-15 02:30N 68°04' E 013°32'0 0.0
2017-Sep-15 02:00N 68°04' E 013°32'0 0.0
2017-Sep-15 01:27N 68°04' E 013°32'0 0.0
2017-Sep-15 01:00N 68°04' E 013°32'0 0.0
2017-Sep-15 00:30N 68°04' E 013°32'0 0.0
2017-Sep-15 00:00N 68°04' E 013°32'0 0.7
2017-Sep-14 23:29N 68°04' E 013°32'4 7.3
2017-Sep-14 23:00N 68°02' E 013°39'4 7.4
2017-Sep-14 22:30N 67°59' E 013°46'4 7.7
2017-Sep-14 22:00N 67°56' E 013°53'4 7.7
2017-Sep-14 21:30N 67°53' E 013°60'4 8.0
2017-Sep-14 21:00N 67°50' E 014°07'4 7.9
2017-Sep-14 20:30N 67°48' E 014°15'4 7.9
2017-Sep-14 20:00N 67°45' E 014°22'4 7.5
2017-Sep-14 19:30N 67°42' E 014°29'4 7.4
2017-Sep-14 19:00N 67°40' E 014°36'4 7.6
2017-Sep-14 18:30N 67°39' E 014°45'4 7.5
2017-Sep-14 18:00N 67°39' E 014°56'6 0.3
2017-Sep-13 20:24N 67°42' E 015°10'3 7.5
2017-Sep-13 19:56N 67°41' E 015°03'3 7.5
2017-Sep-13 19:30N 67°39' E 014°55'4 7.2
2017-Sep-13 19:00N 67°39' E 014°46'3 7.0
2017-Sep-13 18:30N 67°39' E 014°37'4 7.1
2017-Sep-13 18:00N 67°42' E 014°30'4 7.1
2017-Sep-13 17:30N 67°44' E 014°23'3 6.9
2017-Sep-13 17:00N 67°47' E 014°16'3 6.7
2017-Sep-13 16:29N 67°49' E 014°10'3 6.8
2017-Sep-13 16:00N 67°52' E 014°04'4 7.1
2017-Sep-13 15:30N 67°54' E 013°57'4 7.4
2017-Sep-13 15:00N 67°57' E 013°51'4 7.4
2017-Sep-13 14:29N 67°60' E 013°44'4 7.4
2017-Sep-13 14:00N 68°02' E 013°38'3 5.5
2017-Sep-13 13:28N 68°04' E 013°32'0 0.3
2017-Sep-13 13:00N 68°05' E 013°32'0 0.3
2017-Sep-13 12:28N 68°04' E 013°32'0 0.0
2017-Sep-13 11:58N 68°04' E 013°32'0 0.0
2017-Sep-13 11:28N 68°04' E 013°32'0 0.0
2017-Sep-13 10:58N 68°04' E 013°32'0 0.0
2017-Sep-13 10:28N 68°04' E 013°32'0 0.0
2017-Sep-13 09:58N 68°04' E 013°32'0 0.8
2017-Sep-13 09:30N 68°04' E 013°32'0 0.7
2017-Sep-13 08:58N 68°04' E 013°32'0 0.0
2017-Sep-13 08:28N 68°04' E 013°32'0 0.0
2017-Sep-13 07:58N 68°04' E 013°32'0 0.0
2017-Sep-13 07:28N 68°04' E 013°32'0 0.0
2017-Sep-13 06:58N 68°04' E 013°32'0 0.0
2017-Sep-13 06:28N 68°04' E 013°32'0 0.0
2017-Sep-13 05:58N 68°04' E 013°32'0 0.0
2017-Sep-13 05:28N 68°04' E 013°32'0 0.0
2017-Sep-13 04:55N 68°04' E 013°32'0 0.0
2017-Sep-13 04:28N 68°04' E 013°32'0 0.0
2017-Sep-13 03:58N 68°04' E 013°32'0 0.0
2017-Sep-13 03:28N 68°04' E 013°32'0 0.0
2017-Sep-13 02:58N 68°04' E 013°32'0 0.0
2017-Sep-13 02:28N 68°04' E 013°32'0 0.0
2017-Sep-13 01:58N 68°04' E 013°32'0 0.0
2017-Sep-13 01:28N 68°04' E 013°32'0 0.0
2017-Sep-13 00:58N 68°04' E 013°32'0 0.0
2017-Sep-13 00:28N 68°04' E 013°32'0 0.0
2017-Sep-12 23:58N 68°04' E 013°32'0 0.0
2017-Sep-12 23:28N 68°04' E 013°32'0 0.0
2017-Sep-12 22:58N 68°04' E 013°32'0 0.0
2017-Sep-12 22:28N 68°04' E 013°32'0 0.0
2017-Sep-12 21:58N 68°04' E 013°32'0 0.0
2017-Sep-12 21:28N 68°04' E 013°32'0 0.0
2017-Sep-12 20:58N 68°04' E 013°32'0 0.0
2017-Sep-12 20:25N 68°04' E 013°32'0 0.0
2017-Sep-12 19:58N 68°04' E 013°32'0 0.0
2017-Sep-12 19:28N 68°04' E 013°32'0 0.0
2017-Sep-12 18:58N 68°04' E 013°32'0 0.0
2017-Sep-12 18:28N 68°04' E 013°32'0 0.0
2017-Sep-12 17:58N 68°04' E 013°32'0 0.0
2017-Sep-12 17:28N 68°04' E 013°32'0 0.0
2017-Sep-12 16:58N 68°04' E 013°32'0 0.0
2017-Sep-12 16:28N 68°04' E 013°32'0 0.0
2017-Sep-12 15:58N 68°04' E 013°32'0 0.0
2017-Sep-12 15:28N 68°04' E 013°32'0 0.0
2017-Sep-12 14:58N 68°04' E 013°32'0 0.0
2017-Sep-12 14:28N 68°04' E 013°32'0 0.0
2017-Sep-12 13:58N 68°04' E 013°32'0 0.0
2017-Sep-12 13:28N 68°04' E 013°32'0 0.0
2017-Sep-12 12:58N 68°04' E 013°32'0 0.0
2017-Sep-12 12:28N 68°04' E 013°32'0 0.0
2017-Sep-12 11:58N 68°04' E 013°32'0 0.0
2017-Sep-12 11:28N 68°04' E 013°32'0 0.0
2017-Sep-12 10:58N 68°04' E 013°32'0 0.0
2017-Sep-12 10:28N 68°04' E 013°32'0 0.0
2017-Sep-12 09:58N 68°04' E 013°32'0 0.0
2017-Sep-12 09:25N 68°04' E 013°32'0 0.0
2017-Sep-12 08:58N 68°04' E 013°32'0 0.0
2017-Sep-12 08:28N 68°04' E 013°32'0 0.0
2017-Sep-12 07:58N 68°04' E 013°32'0 0.0
2017-Sep-12 07:28N 68°04' E 013°32'0 0.0
2017-Sep-12 06:58N 68°04' E 013°32'0 0.0
2017-Sep-12 06:28N 68°04' E 013°32'0 0.0
2017-Sep-12 05:58N 68°04' E 013°32'0 0.0
2017-Sep-12 05:28N 68°04' E 013°32'0 0.0
2017-Sep-12 04:58N 68°04' E 013°32'0 0.0
2017-Sep-12 04:28N 68°04' E 013°32'0 0.0
2017-Sep-12 03:58N 68°04' E 013°32'0 0.0
2017-Sep-12 03:28N 68°04' E 013°32'0 0.0
2017-Sep-12 02:58N 68°04' E 013°32'0 0.0
2017-Sep-12 02:28N 68°04' E 013°32'0 0.0
2017-Sep-12 01:58N 68°04' E 013°32'0 0.0
2017-Sep-12 01:28N 68°04' E 013°32'0 0.0
2017-Sep-12 00:58N 68°04' E 013°32'0 0.0
2017-Sep-12 00:28N 68°04' E 013°32'0 0.0
2017-Sep-11 23:58N 68°04' E 013°32'0 0.0
2017-Sep-11 23:28N 68°04' E 013°32'0 0.0
2017-Sep-11 22:58N 68°04' E 013°32'0 0.0
2017-Sep-11 22:28N 68°04' E 013°32'0 0.0
2017-Sep-11 21:58N 68°04' E 013°32'0 0.0
2017-Sep-11 21:28N 68°04' E 013°32'  
Track history (hours):
 
Tides and Currents Weather Stations Pressure Air Temp Water Temp Dewpoint Dewpoint Depression Visibility Wind Speed Wind Dir Waves Ship Positions

Nonstind

Last reported at 2017-Sep-21 21:01 UTC. Time now 2017-Sep-21 21:05 UTC.
Position N 68°01' E 013°41'.

Length 12 m.

Type: Fishing. MMSI: 257150140.

Date/timePositionNaut miles runAvg speedWind from/ knotsBaromVisibWave heightAir tempDewpointWater temp
2017-Sep-21 21:01N 68°01' E 013°41'4 7.6
2017-Sep-21 20:30N 67°58' E 013°48'4 7.7
2017-Sep-21 19:58N 67°55' E 013°55'4 7.8
2017-Sep-21 19:29N 67°52' E 014°02'4 7.7
2017-Sep-21 19:00N 67°50' E 014°09'4 7.4
2017-Sep-21 18:29N 67°47' E 014°16'4 7.6
2017-Sep-21 18:00N 67°44' E 014°23'4 7.8
2017-Sep-21 17:30N 67°42' E 014°31'4 7.5
2017-Sep-21 16:59N 67°39' E 014°39'4 7.7
2017-Sep-21 16:30N 67°39' E 014°48'4 7.3
2017-Sep-21 15:59N 67°40' E 014°58'14 2.4
2017-Sep-21 10:00N 67°47' E 015°31'4 1.2
2017-Sep-21 07:00N 67°45' E 015°39'1 1.1
2017-Sep-21 05:51N 67°45' E 015°42'5 0.6
2017-Sep-20 21:20N 67°47' E 015°30'8 5.5
2017-Sep-20 19:50N 67°43' E 015°12'3 7.6
2017-Sep-20 19:27N 67°41' E 015°05'4 7.7
2017-Sep-20 18:58N 67°39' E 014°57'3 7.0
2017-Sep-20 18:29N 67°39' E 014°48'3 6.9
2017-Sep-20 18:00N 67°39' E 014°39'3 6.8
2017-Sep-20 17:30N 67°41' E 014°32'3 6.9
2017-Sep-20 17:00N 67°43' E 014°25'3 7.0
2017-Sep-20 16:30N 67°46' E 014°19'4 7.2
2017-Sep-20 16:00N 67°49' E 014°12'4 7.2
2017-Sep-20 15:30N 67°51' E 014°06'4 7.0
2017-Sep-20 14:59N 67°54' E 013°59'7 6.9
2017-Sep-20 14:00N 67°59' E 013°47'3 6.8
2017-Sep-20 13:30N 68°01' E 013°41'3 7.1
2017-Sep-20 13:01N 68°04' E 013°34'1 1.6
2017-Sep-20 12:30N 68°04' E 013°32'0 0.7
2017-Sep-20 11:59N 68°04' E 013°32'0 0.0
2017-Sep-20 11:29N 68°04' E 013°32'0 0.0
2017-Sep-20 10:59N 68°04' E 013°32'0 0.0
2017-Sep-20 10:29N 68°04' E 013°32'0 0.0
2017-Sep-20 09:59N 68°04' E 013°32'0 0.0
2017-Sep-20 09:29N 68°04' E 013°32'0 0.0
2017-Sep-20 08:59N 68°04' E 013°32'0 0.0
2017-Sep-20 08:29N 68°04' E 013°32'0 0.0
2017-Sep-20 07:59N 68°04' E 013°32'0 0.0
2017-Sep-20 07:29N 68°04' E 013°32'0 0.0
2017-Sep-20 06:59N 68°04' E 013°32'0 0.0
2017-Sep-20 06:29N 68°04' E 013°32'0 0.0
2017-Sep-20 05:59N 68°04' E 013°32'0 0.0
2017-Sep-20 05:29N 68°04' E 013°32'0 0.0
2017-Sep-20 04:59N 68°04' E 013°32'0 0.0
2017-Sep-20 04:29N 68°04' E 013°32'0 0.0
2017-Sep-20 03:59N 68°04' E 013°32'0 0.0
2017-Sep-20 03:29N 68°04' E 013°32'0 0.0
2017-Sep-20 02:59N 68°04' E 013°32'0 0.0
2017-Sep-20 02:29N 68°04' E 013°32'0 0.0
2017-Sep-20 01:59N 68°04' E 013°32'0 0.0
2017-Sep-20 01:29N 68°04' E 013°32'0 0.0
2017-Sep-20 00:59N 68°04' E 013°32'0 0.0
2017-Sep-20 00:29N 68°04' E 013°32'0 0.0
2017-Sep-19 23:59N 68°04' E 013°32'0 0.0
2017-Sep-19 23:29N 68°04' E 013°32'0 0.0
2017-Sep-19 22:59N 68°04' E 013°32'0 0.3
2017-Sep-19 22:30N 68°05' E 013°32'0 0.0
2017-Sep-19 22:00N 68°05' E 013°32'0 0.0
2017-Sep-19 21:30N 68°05' E 013°32'1 1.2
2017-Sep-19 21:00N 68°04' E 013°33'4 7.7
2017-Sep-19 20:30N 68°01' E 013°40'4 7.7
2017-Sep-19 20:00N 67°59' E 013°47'4 7.9
2017-Sep-19 19:30N 67°56' E 013°54'4 7.8
2017-Sep-19 19:00N 67°53' E 014°02'4 7.8
2017-Sep-19 18:30N 67°50' E 014°09'4 7.8
2017-Sep-19 18:00N 67°47' E 014°16'4 7.8
2017-Sep-19 17:29N 67°44' E 014°23'4 7.8
2017-Sep-19 17:00N 67°42' E 014°31'4 7.6
2017-Sep-19 16:30N 67°39' E 014°38'4 7.7
2017-Sep-19 15:59N 67°39' E 014°49'4 7.4
2017-Sep-19 15:29N 67°40' E 014°58'16 2.4
2017-Sep-19 08:35N 67°46' E 015°39'0 1.0
2017-Sep-19 08:22N 67°45' E 015°39'0 1.0
2017-Sep-19 08:01N 67°45' E 015°40'0 0.9
2017-Sep-19 07:27N 67°45' E 015°41'4 0.4
2017-Sep-18 21:43N 67°47' E 015°32'9 4.8
2017-Sep-18 19:45N 67°42' E 015°10'2 7.5
2017-Sep-18 19:28N 67°41' E 015°06'4 7.7
2017-Sep-18 18:58N 67°39' E 014°56'3 7.5
2017-Sep-18 18:30N 67°39' E 014°47'4 7.6
2017-Sep-18 18:00N 67°39' E 014°38'4 7.4
2017-Sep-18 17:30N 67°42' E 014°30'4 7.3
2017-Sep-18 17:00N 67°44' E 014°23'3 6.9
2017-Sep-18 16:30N 67°47' E 014°17'3 6.8
2017-Sep-18 16:00N 67°49' E 014°11'4 7.1
2017-Sep-18 15:30N 67°52' E 014°04'3 6.9
2017-Sep-18 15:00N 67°54' E 013°58'4 6.8
2017-Sep-18 14:29N 67°57' E 013°51'3 6.8
2017-Sep-18 14:00N 67°59' E 013°45'4 7.3
2017-Sep-18 13:30N 68°02' E 013°39'4 6.8
2017-Sep-18 12:58N 68°04' E 013°32'0 0.0
2017-Sep-18 12:28N 68°04' E 013°32'0 0.0
2017-Sep-18 11:58N 68°04' E 013°32'0 0.0
2017-Sep-18 11:25N 68°04' E 013°32'0 0.0
2017-Sep-18 10:58N 68°04' E 013°32'0 0.0
2017-Sep-18 10:28N 68°04' E 013°32'0 0.0
2017-Sep-18 09:58N 68°04' E 013°32'0 0.0
2017-Sep-18 09:28N 68°04' E 013°32'0 0.0
2017-Sep-18 08:58N 68°04' E 013°32'0 0.0
2017-Sep-18 08:28N 68°04' E 013°32'0 0.0
2017-Sep-18 07:58N 68°04' E 013°32'0 0.0
2017-Sep-18 07:28N 68°04' E 013°32'0 0.0
2017-Sep-18 06:58N 68°04' E 013°32'0 0.0
2017-Sep-18 06:28N 68°04' E 013°32'0 0.3
2017-Sep-18 06:00N 68°05' E 013°32'0 0.0
2017-Sep-18 05:30N 68°05' E 013°32'0 0.0
2017-Sep-18 05:00N 68°05' E 013°32'0 0.3
2017-Sep-18 04:29N 68°04' E 013°32'0 0.0
2017-Sep-18 03:59N 68°04' E 013°32'0 0.0
2017-Sep-18 03:29N 68°04' E 013°32'0 0.0
2017-Sep-18 02:59N 68°04' E 013°32'0 0.0
2017-Sep-18 02:29N 68°04' E 013°32'0 0.0
2017-Sep-18 01:59N 68°04' E 013°32'0 0.0
2017-Sep-18 01:29N 68°04' E 013°32'0 0.0
2017-Sep-18 00:59N 68°04' E 013°32'0 0.0
2017-Sep-18 00:29N 68°04' E 013°32'0 0.0
2017-Sep-17 23:59N 68°04' E 013°32'0 0.0
2017-Sep-17 23:29N 68°04' E 013°32'0 0.0
2017-Sep-17 22:59N 68°04' E 013°32'0 0.0
2017-Sep-17 22:29N 68°04' E 013°32'2 4.7
2017-Sep-17 22:00N 68°03' E 013°37'4 7.2
2017-Sep-17 21:30N 68°00' E 013°43'4 7.3
2017-Sep-17 20:59N 67°58' E 013°49'4 7.5
2017-Sep-17 20:30N 67°55' E 013°56'4 7.6
2017-Sep-17 19:59N 67°52' E 014°04'4 7.6
2017-Sep-17 19:30N 67°50' E 014°11'4 7.4
2017-Sep-17 18:59N 67°47' E 014°18'3 7.1
2017-Sep-17 18:30N 67°44' E 014°24'3 7.0
2017-Sep-17 18:00N 67°42' E 014°30'3 6.8
2017-Sep-17 17:30N 67°39' E 014°37'3 6.6
2017-Sep-17 17:00N 67°39' E 014°45'3 6.1
2017-Sep-17 16:30N 67°39' E 014°53'3 6.0
2017-Sep-17 16:00N 67°40' E 015°01'14 0.7
2017-Sep-16 21:15N 67°47' E 015°32'0 1.0
2017-Sep-16 21:00N 67°47' E 015°32'8 6.4
2017-Sep-16 19:46N 67°43' E 015°13'2 7.8
2017-Sep-16 19:29N 67°42' E 015°08'4 7.6
2017-Sep-16 19:00N 67°40' E 015°00'4 7.5
2017-Sep-16 18:29N 67°39' E 014°50'4 7.6
2017-Sep-16 18:00N 67°39' E 014°41'4 7.4
2017-Sep-16 17:30N 67°41' E 014°32'4 7.8
2017-Sep-16 17:00N 67°44' E 014°25'4 7.7
2017-Sep-16 16:30N 67°47' E 014°18'4 7.5
2017-Sep-16 16:00N 67°49' E 014°11'4 7.3
2017-Sep-16 15:30N 67°52' E 014°04'4 7.2
2017-Sep-16 15:00N 67°54' E 013°58'4 6.9
2017-Sep-16 14:29N 67°57' E 013°51'3 7.3
2017-Sep-16 14:00N 67°60' E 013°45'4 7.5
2017-Sep-16 13:30N 68°02' E 013°38'3 5.9
2017-Sep-16 12:58N 68°04' E 013°32'0 0.0
2017-Sep-16 12:28N 68°04' E 013°32'0 0.0
2017-Sep-16 11:58N 68°04' E 013°32'0 0.0
2017-Sep-16 11:28N 68°04' E 013°32'0 0.0
2017-Sep-16 10:58N 68°04' E 013°32'0 0.0
2017-Sep-16 10:28N 68°04' E 013°32'0 0.0
2017-Sep-16 09:58N 68°04' E 013°32'0 0.0
2017-Sep-16 09:28N 68°04' E 013°32'0 0.0
2017-Sep-16 08:58N 68°04' E 013°32'0 0.0
2017-Sep-16 08:28N 68°04' E 013°32'0 0.0
2017-Sep-16 07:58N 68°04' E 013°32'0 0.0
2017-Sep-16 07:28N 68°04' E 013°32'0 0.0
2017-Sep-16 06:58N 68°04' E 013°32'0 0.0
2017-Sep-16 06:28N 68°04' E 013°32'0 0.0
2017-Sep-16 05:58N 68°04' E 013°32'0 0.0
2017-Sep-16 05:28N 68°04' E 013°32'0 0.0
2017-Sep-16 04:58N 68°04' E 013°32'0 0.0
2017-Sep-16 04:28N 68°04' E 013°32'0 0.0
2017-Sep-16 03:52N 68°04' E 013°32'0 0.0
2017-Sep-16 03:28N 68°04' E 013°32'0 0.0
2017-Sep-16 02:58N 68°04' E 013°32'0 0.0
2017-Sep-16 02:28N 68°04' E 013°32'0 0.0
2017-Sep-16 01:58N 68°04' E 013°32'0 0.0
2017-Sep-16 01:28N 68°04' E 013°32'0 0.0
2017-Sep-16 00:58N 68°04' E 013°32'0 0.0
2017-Sep-16 00:28N 68°04' E 013°32'0 0.0
2017-Sep-15 23:58N 68°04' E 013°32'0 0.0
2017-Sep-15 23:28N 68°04' E 013°32'0 0.0
2017-Sep-15 22:59N 68°04' E 013°32'0 0.0
2017-Sep-15 22:28N 68°04' E 013°32'0 0.0
2017-Sep-15 21:58N 68°04' E 013°32'0 0.0
2017-Sep-15 21:28N 68°04' E 013°32'0 0.0
2017-Sep-15 20:59N 68°04' E 013°32'0 0.0
2017-Sep-15 20:29N 68°04' E 013°32'0 0.0
2017-Sep-15 19:59N 68°04' E 013°32'0 0.0
2017-Sep-15 19:29N 68°04' E 013°32'0 0.0
2017-Sep-15 18:59N 68°04' E 013°32'0 0.0
2017-Sep-15 18:29N 68°04' E 013°32'0 0.0
2017-Sep-15 17:59N 68°04' E 013°32'0 0.0
2017-Sep-15 17:29N 68°04' E 013°32'0 0.0
2017-Sep-15 16:59N 68°04' E 013°32'0 0.0
2017-Sep-15 16:29N 68°04' E 013°32'0 0.0
2017-Sep-15 15:59N 68°04' E 013°32'0 0.0
2017-Sep-15 15:29N 68°04' E 013°32'0 0.0
2017-Sep-15 14:59N 68°04' E 013°32'0 0.0
2017-Sep-15 14:29N 68°04' E 013°32'0 0.0
2017-Sep-15 13:59N 68°04' E 013°32'0 0.0
2017-Sep-15 13:29N 68°04' E 013°32'0 0.0
2017-Sep-15 12:59N 68°04' E 013°32'0 0.0
2017-Sep-15 12:29N 68°04' E 013°32'0 0.0
2017-Sep-15 11:59N 68°04' E 013°32'0 0.0
2017-Sep-15 11:29N 68°04' E 013°32'0 0.0
2017-Sep-15 10:59N 68°04' E 013°32'0 0.0
2017-Sep-15 10:29N 68°04' E 013°32'0 0.0
2017-Sep-15 09:59N 68°04' E 013°32'0 0.0
2017-Sep-15 09:29N 68°04' E 013°32'0 0.0
2017-Sep-15 08:59N 68°04' E 013°32'0 0.0
2017-Sep-15 08:26N 68°04' E 013°32'0 0.0
2017-Sep-15 07:59N 68°04' E 013°32'0 0.0
2017-Sep-15 07:29N 68°04' E 013°32'0 0.3
2017-Sep-15 06:59N 68°05' E 013°32'0 0.0
2017-Sep-15 06:29N 68°05' E 013°32'0 0.0
2017-Sep-15 05:59N 68°05' E 013°32'0 0.0
2017-Sep-15 05:29N 68°05' E 013°32'0 0.0
2017-Sep-15 04:59N 68°05' E 013°32'0 0.3
2017-Sep-15 04:30N 68°04' E 013°32'0 0.0
2017-Sep-15 04:00N 68°04' E 013°32'0 0.0
2017-Sep-15 03:30N 68°04' E 013°32'0 0.0
2017-Sep-15 03:00N 68°04' E 013°32'0 0.0
2017-Sep-15 02:30N 68°04' E 013°32'0 0.0
2017-Sep-15 02:00N 68°04' E 013°32'0 0.0
2017-Sep-15 01:27N 68°04' E 013°32'0 0.0
2017-Sep-15 01:00N 68°04' E 013°32'0 0.0
2017-Sep-15 00:30N 68°04' E 013°32'0 0.0
2017-Sep-15 00:00N 68°04' E 013°32'0 0.7
2017-Sep-14 23:29N 68°04' E 013°32'4 7.3
2017-Sep-14 23:00N 68°02' E 013°39'4 7.4
2017-Sep-14 22:30N 67°59' E 013°46'4 7.7
2017-Sep-14 22:00N 67°56' E 013°53'4 7.7
2017-Sep-14 21:30N 67°53' E 013°60'4 8.0
2017-Sep-14 21:00N 67°50' E 014°07'4 7.9
2017-Sep-14 20:30N 67°48' E 014°15'4 7.9
2017-Sep-14 20:00N 67°45' E 014°22'4 7.5
2017-Sep-14 19:30N 67°42' E 014°29'4 7.4
2017-Sep-14 19:00N 67°40' E 014°36'4 7.6
2017-Sep-14 18:30N 67°39' E 014°45'4 7.5
2017-Sep-14 18:00N 67°39' E 014°56'6 0.3
2017-Sep-13 20:24N 67°42' E 015°10'3 7.5
2017-Sep-13 19:56N 67°41' E 015°03'3 7.5
2017-Sep-13 19:30N 67°39' E 014°55'4 7.2
2017-Sep-13 19:00N 67°39' E 014°46'3 7.0
2017-Sep-13 18:30N 67°39' E 014°37'4 7.1
2017-Sep-13 18:00N 67°42' E 014°30'4 7.1
2017-Sep-13 17:30N 67°44' E 014°23'3 6.9
2017-Sep-13 17:00N 67°47' E 014°16'3 6.7
2017-Sep-13 16:29N 67°49' E 014°10'3 6.8
2017-Sep-13 16:00N 67°52' E 014°04'4 7.1
2017-Sep-13 15:30N 67°54' E 013°57'4 7.4
2017-Sep-13 15:00N 67°57' E 013°51'4 7.4
2017-Sep-13 14:29N 67°60' E 013°44'4 7.4
2017-Sep-13 14:00N 68°02' E 013°38'3 5.5
2017-Sep-13 13:28N 68°04' E 013°32'0 0.3
2017-Sep-13 13:00N 68°05' E 013°32'0 0.3
2017-Sep-13 12:28N 68°04' E 013°32'0 0.0
2017-Sep-13 11:58N 68°04' E 013°32'0 0.0
2017-Sep-13 11:28N 68°04' E 013°32'0 0.0
2017-Sep-13 10:58N 68°04' E 013°32'0 0.0
2017-Sep-13 10:28N 68°04' E 013°32'0 0.0
2017-Sep-13 09:58N 68°04' E 013°32'0 0.8
2017-Sep-13 09:30N 68°04' E 013°32'0 0.7
2017-Sep-13 08:58N 68°04' E 013°32'0 0.0
2017-Sep-13 08:28N 68°04' E 013°32'0 0.0
2017-Sep-13 07:58N 68°04' E 013°32'0 0.0
2017-Sep-13 07:28N 68°04' E 013°32'0 0.0
2017-Sep-13 06:58N 68°04' E 013°32'0 0.0
2017-Sep-13 06:28N 68°04' E 013°32'0 0.0
2017-Sep-13 05:58N 68°04' E 013°32'0 0.0
2017-Sep-13 05:28N 68°04' E 013°32'0 0.0
2017-Sep-13 04:55N 68°04' E 013°32'0 0.0
2017-Sep-13 04:28N 68°04' E 013°32'0 0.0
2017-Sep-13 03:58N 68°04' E 013°32'0 0.0
2017-Sep-13 03:28N 68°04' E 013°32'0 0.0
2017-Sep-13 02:58N 68°04' E 013°32'0 0.0
2017-Sep-13 02:28N 68°04' E 013°32'0 0.0
2017-Sep-13 01:58N 68°04' E 013°32'0 0.0
2017-Sep-13 01:28N 68°04' E 013°32'0 0.0
2017-Sep-13 00:58N 68°04' E 013°32'0 0.0
2017-Sep-13 00:28N 68°04' E 013°32'0 0.0
2017-Sep-12 23:58N 68°04' E 013°32'0 0.0
2017-Sep-12 23:28N 68°04' E 013°32'0 0.0
2017-Sep-12 22:58N 68°04' E 013°32'0 0.0
2017-Sep-12 22:28N 68°04' E 013°32'0 0.0
2017-Sep-12 21:58N 68°04' E 013°32'0 0.0
2017-Sep-12 21:28N 68°04' E 013°32'0 0.0
2017-Sep-12 20:58N 68°04' E 013°32'0 0.0
2017-Sep-12 20:25N 68°04' E 013°32'0 0.0
2017-Sep-12 19:58N 68°04' E 013°32'0 0.0
2017-Sep-12 19:28N 68°04' E 013°32'0 0.0
2017-Sep-12 18:58N 68°04' E 013°32'0 0.0
2017-Sep-12 18:28N 68°04' E 013°32'0 0.0
2017-Sep-12 17:58N 68°04' E 013°32'0 0.0
2017-Sep-12 17:28N 68°04' E 013°32'0 0.0
2017-Sep-12 16:58N 68°04' E 013°32'0 0.0
2017-Sep-12 16:28N 68°04' E 013°32'0 0.0
2017-Sep-12 15:58N 68°04' E 013°32'0 0.0
2017-Sep-12 15:28N 68°04' E 013°32'0 0.0
2017-Sep-12 14:58N 68°04' E 013°32'0 0.0
2017-Sep-12 14:28N 68°04' E 013°32'0 0.0
2017-Sep-12 13:58N 68°04' E 013°32'0 0.0
2017-Sep-12 13:28N 68°04' E 013°32'0 0.0
2017-Sep-12 12:58N 68°04' E 013°32'0 0.0
2017-Sep-12 12:28N 68°04' E 013°32'0 0.0
2017-Sep-12 11:58N 68°04' E 013°32'0 0.0
2017-Sep-12 11:28N 68°04' E 013°32'0 0.0
2017-Sep-12 10:58N 68°04' E 013°32'0 0.0
2017-Sep-12 10:28N 68°04' E 013°32'0 0.0
2017-Sep-12 09:58N 68°04' E 013°32'0 0.0
2017-Sep-12 09:25N 68°04' E 013°32'0 0.0
2017-Sep-12 08:58N 68°04' E 013°32'0 0.0
2017-Sep-12 08:28N 68°04' E 013°32'0 0.0
2017-Sep-12 07:58N 68°04' E 013°32'0 0.0
2017-Sep-12 07:28N 68°04' E 013°32'0 0.0
2017-Sep-12 06:58N 68°04' E 013°32'0 0.0
2017-Sep-12 06:28N 68°04' E 013°32'0 0.0
2017-Sep-12 05:58N 68°04' E 013°32'0 0.0
2017-Sep-12 05:28N 68°04' E 013°32'0 0.0
2017-Sep-12 04:58N 68°04' E 013°32'0 0.0
2017-Sep-12 04:28N 68°04' E 013°32'0 0.0
2017-Sep-12 03:58N 68°04' E 013°32'0 0.0
2017-Sep-12 03:28N 68°04' E 013°32'0 0.0
2017-Sep-12 02:58N 68°04' E 013°32'0 0.0
2017-Sep-12 02:28N 68°04' E 013°32'0 0.0
2017-Sep-12 01:58N 68°04' E 013°32'0 0.0
2017-Sep-12 01:28N 68°04' E 013°32'0 0.0
2017-Sep-12 00:58N 68°04' E 013°32'0 0.0
2017-Sep-12 00:28N 68°04' E 013°32'0 0.0
2017-Sep-11 23:58N 68°04' E 013°32'0 0.0
2017-Sep-11 23:28N 68°04' E 013°32'0 0.0
2017-Sep-11 22:58N 68°04' E 013°32'0 0.0
2017-Sep-11 22:28N 68°04' E 013°32'0 0.0
2017-Sep-11 21:58N 68°04' E 013°32'0 0.0
2017-Sep-11 21:28N 68°04' E 013°32'  

Dump ship's entire track history